sensor_id;sensor_type;location;lat;lon;timestamp;pressure;altitude;pressure_sealevel;temperature;humidity
53908;BME280;40469;47.998;7.794;2023-06-22T00:00:50;98884.91;;;21.01;100.00
53908;BME280;40469;47.998;7.794;2023-06-22T00:03:17;98876.84;;;21.03;100.00
53908;BME280;40469;47.998;7.794;2023-06-22T00:05:42;98885.78;;;21.02;100.00
53908;BME280;40469;47.998;7.794;2023-06-22T00:08:08;98878.59;;;21.04;100.00
53908;BME280;40469;47.998;7.794;2023-06-22T00:10:33;98871.53;;;21.03;100.00
53908;BME280;40469;47.998;7.794;2023-06-22T00:12:58;98877.00;;;21.00;100.00
53908;BME280;40469;47.998;7.794;2023-06-22T00:15:24;98880.09;;;20.92;100.00
53908;BME280;40469;47.998;7.794;2023-06-22T00:17:50;98880.31;;;20.88;100.00
53908;BME280;40469;47.998;7.794;2023-06-22T00:20:16;98872.78;;;20.80;100.00
53908;BME280;40469;47.998;7.794;2023-06-22T00:22:43;98874.13;;;20.71;100.00
53908;BME280;40469;47.998;7.794;2023-06-22T00:25:09;98874.38;;;20.67;100.00
53908;BME280;40469;47.998;7.794;2023-06-22T00:27:35;98867.50;;;20.62;100.00
53908;BME280;40469;47.998;7.794;2023-06-22T00:30:00;98872.72;;;20.64;100.00
53908;BME280;40469;47.998;7.794;2023-06-22T00:32:26;98873.88;;;20.58;100.00
53908;BME280;40469;47.998;7.794;2023-06-22T00:34:51;98876.69;;;20.55;100.00
53908;BME280;40469;47.998;7.794;2023-06-22T00:37:17;98873.19;;;20.55;100.00
53908;BME280;40469;47.998;7.794;2023-06-22T00:39:43;98878.44;;;20.56;100.00
53908;BME280;40469;47.998;7.794;2023-06-22T00:42:08;98875.59;;;20.59;100.00
53908;BME280;40469;47.998;7.794;2023-06-22T00:44:35;98890.81;;;20.56;100.00
53908;BME280;40469;47.998;7.794;2023-06-22T00:47:00;98900.91;;;20.49;100.00
53908;BME280;40469;47.998;7.794;2023-06-22T00:49:26;98880.84;;;20.43;100.00
53908;BME280;40469;47.998;7.794;2023-06-22T00:51:52;98882.63;;;20.43;100.00
53908;BME280;40469;47.998;7.794;2023-06-22T00:54:17;98891.63;;;20.40;100.00
53908;BME280;40469;47.998;7.794;2023-06-22T00:56:56;98901.34;;;20.40;100.00
53908;BME280;40469;47.998;7.794;2023-06-22T00:59:23;98891.22;;;20.31;100.00
53908;BME280;40469;47.998;7.794;2023-06-22T01:01:49;98878.38;;;20.23;100.00
53908;BME280;40469;47.998;7.794;2023-06-22T01:04:15;98888.72;;;20.27;100.00
53908;BME280;40469;47.998;7.794;2023-06-22T01:07:07;98896.28;;;20.18;100.00
53908;BME280;40469;47.998;7.794;2023-06-22T01:09:46;98886.09;;;20.10;100.00
53908;BME280;40469;47.998;7.794;2023-06-22T01:12:15;98863.06;;;20.11;100.00
53908;BME280;40469;47.998;7.794;2023-06-22T01:14:47;98875.56;;;20.08;100.00
53908;BME280;40469;47.998;7.794;2023-06-22T01:17:19;98887.94;;;20.08;100.00
53908;BME280;40469;47.998;7.794;2023-06-22T01:19:47;98882.69;;;20.06;100.00
53908;BME280;40469;47.998;7.794;2023-06-22T01:22:16;98864.31;;;20.03;100.00
53908;BME280;40469;47.998;7.794;2023-06-22T01:24:54;98858.84;;;20.06;100.00
53908;BME280;40469;47.998;7.794;2023-06-22T01:27:32;98861.50;;;20.06;100.00
53908;BME280;40469;47.998;7.794;2023-06-22T01:29:59;98870.25;;;19.91;100.00
53908;BME280;40469;47.998;7.794;2023-06-22T01:32:33;98854.56;;;19.86;100.00
53908;BME280;40469;47.998;7.794;2023-06-22T01:35:01;98860.41;;;19.93;100.00
53908;BME280;40469;47.998;7.794;2023-06-22T01:37:28;98848.16;;;19.91;100.00
53908;BME280;40469;47.998;7.794;2023-06-22T01:39:55;98844.66;;;19.90;100.00
53908;BME280;40469;47.998;7.794;2023-06-22T01:42:23;98834.75;;;19.94;100.00
53908;BME280;40469;47.998;7.794;2023-06-22T01:44:50;98851.63;;;19.93;100.00
53908;BME280;40469;47.998;7.794;2023-06-22T01:47:17;98854.47;;;19.88;100.00
53908;BME280;40469;47.998;7.794;2023-06-22T01:49:43;98861.09;;;19.79;100.00
53908;BME280;40469;47.998;7.794;2023-06-22T01:52:08;98846.41;;;19.72;100.00
53908;BME280;40469;47.998;7.794;2023-06-22T01:54:34;98840.84;;;19.59;100.00
53908;BME280;40469;47.998;7.794;2023-06-22T01:56:59;98838.13;;;19.61;100.00
53908;BME280;40469;47.998;7.794;2023-06-22T01:59:59;98846.84;;;19.63;100.00
53908;BME280;40469;47.998;7.794;2023-06-22T02:02:27;98845.19;;;19.60;100.00
53908;BME280;40469;47.998;7.794;2023-06-22T02:05:03;98828.91;;;19.50;100.00
53908;BME280;40469;47.998;7.794;2023-06-22T02:07:34;98832.34;;;19.52;100.00
53908;BME280;40469;47.998;7.794;2023-06-22T02:10:06;98828.03;;;19.50;100.00
53908;BME280;40469;47.998;7.794;2023-06-22T02:12:33;98826.28;;;19.50;100.00
53908;BME280;40469;47.998;7.794;2023-06-22T02:15:00;98835.97;;;19.50;100.00
53908;BME280;40469;47.998;7.794;2023-06-22T02:17:26;98826.56;;;19.44;100.00
53908;BME280;40469;47.998;7.794;2023-06-22T02:19:52;98820.72;;;19.38;100.00
53908;BME280;40469;47.998;7.794;2023-06-22T02:22:17;98811.13;;;19.35;100.00
53908;BME280;40469;47.998;7.794;2023-06-22T02:24:43;98812.84;;;19.36;100.00
53908;BME280;40469;47.998;7.794;2023-06-22T02:27:08;98823.44;;;19.36;100.00
53908;BME280;40469;47.998;7.794;2023-06-22T02:29:34;98806.97;;;19.29;100.00
53908;BME280;40469;47.998;7.794;2023-06-22T02:31:59;98812.41;;;19.26;100.00
53908;BME280;40469;47.998;7.794;2023-06-22T02:34:24;98792.47;;;19.19;100.00
53908;BME280;40469;47.998;7.794;2023-06-22T02:36:50;98791.31;;;19.06;100.00
53908;BME280;40469;47.998;7.794;2023-06-22T02:39:22;98785.09;;;19.07;100.00
53908;BME280;40469;47.998;7.794;2023-06-22T02:41:49;98781.75;;;19.03;100.00
53908;BME280;40469;47.998;7.794;2023-06-22T02:44:15;98782.41;;;19.08;100.00
53908;BME280;40469;47.998;7.794;2023-06-22T02:46:40;98797.97;;;19.14;100.00
53908;BME280;40469;47.998;7.794;2023-06-22T02:49:06;98794.34;;;19.17;100.00
53908;BME280;40469;47.998;7.794;2023-06-22T02:51:33;98786.84;;;19.08;100.00
53908;BME280;40469;47.998;7.794;2023-06-22T02:53:59;98791.41;;;19.04;100.00
53908;BME280;40469;47.998;7.794;2023-06-22T02:56:25;98783.56;;;19.03;100.00
53908;BME280;40469;47.998;7.794;2023-06-22T02:58:51;98788.66;;;19.06;100.00
53908;BME280;40469;47.998;7.794;2023-06-22T03:01:16;98786.19;;;19.03;100.00
53908;BME280;40469;47.998;7.794;2023-06-22T03:03:42;98786.84;;;19.08;100.00
53908;BME280;40469;47.998;7.794;2023-06-22T03:06:07;98777.94;;;19.09;100.00
53908;BME280;40469;47.998;7.794;2023-06-22T03:08:33;98781.38;;;19.11;100.00
53908;BME280;40469;47.998;7.794;2023-06-22T03:10:59;98791.91;;;19.12;100.00
53908;BME280;40469;47.998;7.794;2023-06-22T03:13:24;98791.97;;;19.11;100.00
53908;BME280;40469;47.998;7.794;2023-06-22T03:15:50;98793.75;;;19.10;100.00
53908;BME280;40469;47.998;7.794;2023-06-22T03:18:15;98790.41;;;19.07;100.00
53908;BME280;40469;47.998;7.794;2023-06-22T03:20:41;98789.75;;;19.02;100.00
53908;BME280;40469;47.998;7.794;2023-06-22T03:23:06;98780.19;;;18.99;100.00
53908;BME280;40469;47.998;7.794;2023-06-22T03:25:31;98777.53;;;18.99;100.00
53908;BME280;40469;47.998;7.794;2023-06-22T03:27:58;98782.66;;;19.02;100.00
53908;BME280;40469;47.998;7.794;2023-06-22T03:30:24;98762.72;;;18.95;100.00
53908;BME280;40469;47.998;7.794;2023-06-22T03:32:49;98774.13;;;18.97;100.00
53908;BME280;40469;47.998;7.794;2023-06-22T03:35:14;98776.59;;;19.00;100.00
53908;BME280;40469;47.998;7.794;2023-06-22T03:37:40;98776.59;;;19.00;100.00
53908;BME280;40469;47.998;7.794;2023-06-22T03:40:06;98768.72;;;18.99;100.00
53908;BME280;40469;47.998;7.794;2023-06-22T03:42:33;98775.03;;;18.96;100.00
53908;BME280;40469;47.998;7.794;2023-06-22T03:44:59;98777.97;;;18.90;100.00
53908;BME280;40469;47.998;7.794;2023-06-22T03:47:26;98786.84;;;18.89;100.00
53908;BME280;40469;47.998;7.794;2023-06-22T03:49:51;98780.53;;;18.91;100.00
53908;BME280;40469;47.998;7.794;2023-06-22T03:52:20;98776.25;;;18.89;100.00
53908;BME280;40469;47.998;7.794;2023-06-22T03:54:45;98776.25;;;18.89;100.00
53908;BME280;40469;47.998;7.794;2023-06-22T03:57:11;98768.47;;;18.86;100.00
53908;BME280;40469;47.998;7.794;2023-06-22T03:59:36;98773.19;;;18.77;100.00
53908;BME280;40469;47.998;7.794;2023-06-22T04:02:02;98780.59;;;18.71;100.00
53908;BME280;40469;47.998;7.794;2023-06-22T04:04:27;98786.72;;;18.71;100.00
53908;BME280;40469;47.998;7.794;2023-06-22T04:06:53;98784.00;;;18.73;100.00
53908;BME280;40469;47.998;7.794;2023-06-22T04:09:18;98786.44;;;18.77;100.00
53908;BME280;40469;47.998;7.794;2023-06-22T04:11:44;98783.63;;;18.82;100.00
53908;BME280;40469;47.998;7.794;2023-06-22T04:14:09;98789.50;;;18.89;100.00
53908;BME280;40469;47.998;7.794;2023-06-22T04:16:34;98794.00;;;18.87;100.00
53908;BME280;40469;47.998;7.794;2023-06-22T04:19:00;98799.59;;;18.79;100.00
53908;BME280;40469;47.998;7.794;2023-06-22T04:21:25;98793.94;;;18.68;100.00
53908;BME280;40469;47.998;7.794;2023-06-22T04:23:50;98793.50;;;18.58;100.00
53908;BME280;40469;47.998;7.794;2023-06-22T04:26:16;98790.06;;;18.56;100.00
53908;BME280;40469;47.998;7.794;2023-06-22T04:28:41;98791.78;;;18.57;100.00
53908;BME280;40469;47.998;7.794;2023-06-22T04:31:07;98797.00;;;18.59;100.00
53908;BME280;40469;47.998;7.794;2023-06-22T04:33:32;98791.56;;;18.62;100.00
53908;BME280;40469;47.998;7.794;2023-06-22T04:35:58;98793.50;;;18.58;100.00
53908;BME280;40469;47.998;7.794;2023-06-22T04:38:26;98797.94;;;18.57;100.00
53908;BME280;40469;47.998;7.794;2023-06-22T04:40:51;98803.28;;;18.56;100.00
53908;BME280;40469;47.998;7.794;2023-06-22T04:43:18;98804.94;;;18.59;100.00
53908;BME280;40469;47.998;7.794;2023-06-22T04:45:43;98808.16;;;18.65;100.00
53908;BME280;40469;47.998;7.794;2023-06-22T04:48:09;98804.38;;;18.71;100.00
53908;BME280;40469;47.998;7.794;2023-06-22T04:50:36;98799.81;;;18.74;100.00
53908;BME280;40469;47.998;7.794;2023-06-22T04:53:04;98804.16;;;18.75;100.00
53908;BME280;40469;47.998;7.794;2023-06-22T04:55:31;98794.22;;;18.81;100.00
53908;BME280;40469;47.998;7.794;2023-06-22T04:57:56;98793.44;;;18.79;100.00
53908;BME280;40469;47.998;7.794;2023-06-22T05:00:22;98796.03;;;18.80;100.00
53908;BME280;40469;47.998;7.794;2023-06-22T05:02:49;98790.63;;;18.83;100.00
53908;BME280;40469;47.998;7.794;2023-06-22T05:05:14;98789.25;;;18.93;100.00
53908;BME280;40469;47.998;7.794;2023-06-22T05:07:45;98786.00;;;18.88;100.00
53908;BME280;40469;47.998;7.794;2023-06-22T05:10:13;98776.91;;;18.94;100.00
53908;BME280;40469;47.998;7.794;2023-06-22T05:12:39;98786.34;;;19.00;100.00
53908;BME280;40469;47.998;7.794;2023-06-22T05:15:07;98785.97;;;19.07;100.00
53908;BME280;40469;47.998;7.794;2023-06-22T05:17:32;98770.78;;;19.11;100.00
53908;BME280;40469;47.998;7.794;2023-06-22T05:19:58;98777.59;;;19.17;100.00
53908;BME280;40469;47.998;7.794;2023-06-22T05:22:23;98767.78;;;19.19;100.00
53908;BME280;40469;47.998;7.794;2023-06-22T05:24:48;98777.22;;;19.24;100.00
53908;BME280;40469;47.998;7.794;2023-06-22T05:27:14;98784.97;;;19.29;100.00
53908;BME280;40469;47.998;7.794;2023-06-22T05:29:40;98774.25;;;19.30;100.00
53908;BME280;40469;47.998;7.794;2023-06-22T05:32:06;98769.59;;;19.36;100.00
53908;BME280;40469;47.998;7.794;2023-06-22T05:34:31;98774.06;;;19.35;100.00
53908;BME280;40469;47.998;7.794;2023-06-22T05:36:57;98763.47;;;19.35;100.00
53908;BME280;40469;47.998;7.794;2023-06-22T05:39:24;98769.31;;;19.42;100.00
53908;BME280;40469;47.998;7.794;2023-06-22T05:41:50;98771.03;;;19.43;100.00
53908;BME280;40469;47.998;7.794;2023-06-22T05:44:16;98768.22;;;19.46;100.00
53908;BME280;40469;47.998;7.794;2023-06-22T05:46:43;98764.59;;;19.48;100.00
53908;BME280;40469;47.998;7.794;2023-06-22T05:49:10;98748.44;;;19.53;100.00
53908;BME280;40469;47.998;7.794;2023-06-22T05:51:35;98745.03;;;19.51;100.00
53908;BME280;40469;47.998;7.794;2023-06-22T05:54:00;98756.03;;;19.61;100.00
53908;BME280;40469;47.998;7.794;2023-06-22T05:56:26;98756.47;;;19.69;100.00
53908;BME280;40469;47.998;7.794;2023-06-22T05:58:51;98762.22;;;19.79;100.00
53908;BME280;40469;47.998;7.794;2023-06-22T06:01:16;98771.50;;;19.87;100.00
53908;BME280;40469;47.998;7.794;2023-06-22T06:03:42;98777.41;;;19.93;100.00
53908;BME280;40469;47.998;7.794;2023-06-22T06:06:07;98783.34;;;19.98;100.00
53908;BME280;40469;47.998;7.794;2023-06-22T06:08:33;98792.91;;;20.00;100.00
53908;BME280;40469;47.998;7.794;2023-06-22T06:10:58;98797.88;;;20.06;100.00
53908;BME280;40469;47.998;7.794;2023-06-22T06:13:26;98788.25;;;20.05;100.00
53908;BME280;40469;47.998;7.794;2023-06-22T06:15:52;98802.13;;;20.11;100.00
53908;BME280;40469;47.998;7.794;2023-06-22T06:18:20;98815.72;;;20.20;100.00
53908;BME280;40469;47.998;7.794;2023-06-22T06:20:45;98802.09;;;20.28;100.00
53908;BME280;40469;47.998;7.794;2023-06-22T06:23:10;98798.47;;;20.46;100.00
53908;BME280;40469;47.998;7.794;2023-06-22T06:25:36;98812.25;;;20.53;100.00
53908;BME280;40469;47.998;7.794;2023-06-22T06:28:01;98817.09;;;20.62;100.00
53908;BME280;40469;47.998;7.794;2023-06-22T06:30:26;98822.94;;;20.69;100.00
53908;BME280;40469;47.998;7.794;2023-06-22T06:32:52;98836.59;;;20.79;100.00
53908;BME280;40469;47.998;7.794;2023-06-22T06:35:17;98822.66;;;20.91;100.00
53908;BME280;40469;47.998;7.794;2023-06-22T06:37:48;98833.44;;;21.04;100.00
53908;BME280;40469;47.998;7.794;2023-06-22T06:40:14;98844.00;;;21.06;100.00
53908;BME280;40469;47.998;7.794;2023-06-22T06:42:44;98853.31;;;20.97;100.00
53908;BME280;40469;47.998;7.794;2023-06-22T06:45:16;98868.34;;;20.96;100.00
53908;BME280;40469;47.998;7.794;2023-06-22T06:47:42;98896.63;;;20.97;100.00
53908;BME280;40469;47.998;7.794;2023-06-22T06:50:08;98900.50;;;21.08;100.00
53908;BME280;40469;47.998;7.794;2023-06-22T06:52:35;98915.13;;;20.99;100.00
53908;BME280;40469;47.998;7.794;2023-06-22T06:55:01;98923.25;;;20.96;100.00
53908;BME280;40469;47.998;7.794;2023-06-22T06:57:26;98923.41;;;20.93;100.00
53908;BME280;40469;47.998;7.794;2023-06-22T06:59:58;98899.00;;;20.86;100.00
53908;BME280;40469;47.998;7.794;2023-06-22T07:02:24;98874.00;;;20.90;100.00
53908;BME280;40469;47.998;7.794;2023-06-22T07:04:49;98866.28;;;20.86;100.00
53908;BME280;40469;47.998;7.794;2023-06-22T07:07:15;98878.19;;;20.94;100.00
53908;BME280;40469;47.998;7.794;2023-06-22T07:09:40;98877.31;;;21.11;100.00
53908;BME280;40469;47.998;7.794;2023-06-22T07:12:06;98860.19;;;21.17;100.00
53908;BME280;40469;47.998;7.794;2023-06-22T07:14:31;98863.69;;;21.33;100.00
53908;BME280;40469;47.998;7.794;2023-06-22T07:16:57;98867.41;;;21.47;100.00
53908;BME280;40469;47.998;7.794;2023-06-22T07:19:26;98874.53;;;21.46;100.00
53908;BME280;40469;47.998;7.794;2023-06-22T07:21:55;98883.25;;;21.64;100.00
53908;BME280;40469;47.998;7.794;2023-06-22T07:24:21;98865.88;;;21.74;100.00
53908;BME280;40469;47.998;7.794;2023-06-22T07:26:47;98862.16;;;21.77;100.00
53908;BME280;40469;47.998;7.794;2023-06-22T07:29:15;98881.59;;;21.77;100.00
53908;BME280;40469;47.998;7.794;2023-06-22T07:31:40;98897.38;;;21.81;100.00
53908;BME280;40469;47.998;7.794;2023-06-22T07:34:06;98893.72;;;21.67;100.00
53908;BME280;40469;47.998;7.794;2023-06-22T07:36:32;98908.25;;;21.44;100.00
53908;BME280;40469;47.998;7.794;2023-06-22T07:38:57;98916.66;;;21.36;100.00
53908;BME280;40469;47.998;7.794;2023-06-22T07:41:22;98879.13;;;21.43;100.00
53908;BME280;40469;47.998;7.794;2023-06-22T07:43:48;98857.47;;;21.50;100.00
53908;BME280;40469;47.998;7.794;2023-06-22T07:46:15;98832.09;;;21.61;100.00
53908;BME280;40469;47.998;7.794;2023-06-22T07:48:40;98835.16;;;21.69;100.00
53908;BME280;40469;47.998;7.794;2023-06-22T07:51:07;98849.53;;;21.81;100.00
53908;BME280;40469;47.998;7.794;2023-06-22T07:53:32;98859.81;;;22.03;100.00
53908;BME280;40469;47.998;7.794;2023-06-22T07:55:58;98853.13;;;22.26;100.00
53908;BME280;40469;47.998;7.794;2023-06-22T07:58:23;98854.50;;;22.47;100.00
53908;BME280;40469;47.998;7.794;2023-06-22T08:00:48;98845.31;;;22.53;100.00
53908;BME280;40469;47.998;7.794;2023-06-22T08:03:14;98863.47;;;22.61;100.00
53908;BME280;40469;47.998;7.794;2023-06-22T08:05:40;98859.59;;;22.81;100.00
53908;BME280;40469;47.998;7.794;2023-06-22T08:08:05;98856.00;;;23.11;100.00
53908;BME280;40469;47.998;7.794;2023-06-22T08:10:30;98862.47;;;23.21;100.00
53908;BME280;40469;47.998;7.794;2023-06-22T08:12:56;98853.19;;;23.41;100.00
53908;BME280;40469;47.998;7.794;2023-06-22T08:15:21;98827.09;;;23.46;100.00
53908;BME280;40469;47.998;7.794;2023-06-22T08:17:47;98826.69;;;23.52;100.00
53908;BME280;40469;47.998;7.794;2023-06-22T08:20:12;98822.31;;;23.51;100.00
53908;BME280;40469;47.998;7.794;2023-06-22T08:22:41;98826.47;;;23.55;100.00
53908;BME280;40469;47.998;7.794;2023-06-22T08:25:07;98817.88;;;23.64;100.00
53908;BME280;40469;47.998;7.794;2023-06-22T08:27:33;98827.06;;;23.73;100.00
53908;BME280;40469;47.998;7.794;2023-06-22T08:29:59;98810.63;;;23.81;100.00
53908;BME280;40469;47.998;7.794;2023-06-22T08:32:26;98809.16;;;24.02;100.00
53908;BME280;40469;47.998;7.794;2023-06-22T08:34:53;98802.47;;;24.22;100.00
53908;BME280;40469;47.998;7.794;2023-06-22T08:37:19;98783.78;;;24.22;100.00
53908;BME280;40469;47.998;7.794;2023-06-22T08:39:45;98766.00;;;24.23;100.00
53908;BME280;40469;47.998;7.794;2023-06-22T08:42:11;98756.47;;;24.45;100.00
53908;BME280;40469;47.998;7.794;2023-06-22T08:44:37;98754.34;;;24.63;100.00
53908;BME280;40469;47.998;7.794;2023-06-22T08:47:02;98756.38;;;24.46;100.00
53908;BME280;40469;47.998;7.794;2023-06-22T08:49:28;98750.59;;;24.52;100.00
53908;BME280;40469;47.998;7.794;2023-06-22T08:51:54;98745.03;;;24.68;100.00
53908;BME280;40469;47.998;7.794;2023-06-22T08:54:21;98737.59;;;24.97;100.00
53908;BME280;40469;47.998;7.794;2023-06-22T08:56:46;98725.97;;;25.23;100.00
53908;BME280;40469;47.998;7.794;2023-06-22T08:59:11;98724.50;;;25.43;100.00
53908;BME280;40469;47.998;7.794;2023-06-22T09:01:37;98715.66;;;25.53;100.00
53908;BME280;40469;47.998;7.794;2023-06-22T09:04:02;98720.13;;;25.42;100.00
53908;BME280;40469;47.998;7.794;2023-06-22T09:06:29;98720.53;;;25.48;100.00
53908;BME280;40469;47.998;7.794;2023-06-22T09:08:56;98724.44;;;25.56;100.00
53908;BME280;40469;47.998;7.794;2023-06-22T09:11:21;98717.19;;;25.69;100.00
53908;BME280;40469;47.998;7.794;2023-06-22T09:13:47;98713.19;;;25.74;100.00
53908;BME280;40469;47.998;7.794;2023-06-22T09:16:12;98714.50;;;26.04;100.00
53908;BME280;40469;47.998;7.794;2023-06-22T09:18:37;98713.53;;;26.05;100.00
53908;BME280;40469;47.998;7.794;2023-06-22T09:21:03;98705.53;;;26.17;100.00
53908;BME280;40469;47.998;7.794;2023-06-22T09:23:28;98707.00;;;26.32;100.00
53908;BME280;40469;47.998;7.794;2023-06-22T09:25:54;98695.78;;;26.61;100.00
53908;BME280;40469;47.998;7.794;2023-06-22T09:28:19;98690.88;;;27.00;100.00
53908;BME280;40469;47.998;7.794;2023-06-22T09:30:45;98692.41;;;27.14;100.00
53908;BME280;40469;47.998;7.794;2023-06-22T09:33:10;98683.00;;;27.19;100.00
53908;BME280;40469;47.998;7.794;2023-06-22T09:35:35;98677.91;;;27.16;100.00
53908;BME280;40469;47.998;7.794;2023-06-22T09:38:01;98670.56;;;27.30;100.00
53908;BME280;40469;47.998;7.794;2023-06-22T09:40:26;98682.03;;;27.53;100.00
53908;BME280;40469;47.998;7.794;2023-06-22T09:42:51;98688.53;;;27.71;100.00
53908;BME280;40469;47.998;7.794;2023-06-22T09:45:17;98693.56;;;27.86;100.00
53908;BME280;40469;47.998;7.794;2023-06-22T09:47:42;98702.16;;;28.01;100.00
53908;BME280;40469;47.998;7.794;2023-06-22T09:50:08;98682.34;;;28.23;100.00
53908;BME280;40469;47.998;7.794;2023-06-22T09:52:33;98671.81;;;28.31;100.00
53908;BME280;40469;47.998;7.794;2023-06-22T09:54:59;98652.28;;;28.29;100.00
53908;BME280;40469;47.998;7.794;2023-06-22T09:57:24;98667.97;;;28.24;100.00
53908;BME280;40469;47.998;7.794;2023-06-22T09:59:49;98668.22;;;28.21;100.00
53908;BME280;40469;47.998;7.794;2023-06-22T10:02:15;98671.06;;;28.29;100.00
53908;BME280;40469;47.998;7.794;2023-06-22T10:04:40;98659.16;;;28.22;100.00
53908;BME280;40469;47.998;7.794;2023-06-22T10:07:06;98664.16;;;28.36;100.00
53908;BME280;40469;47.998;7.794;2023-06-22T10:09:31;98649.38;;;28.51;100.00
53908;BME280;40469;47.998;7.794;2023-06-22T10:11:56;98646.22;;;28.67;100.00
53908;BME280;40469;47.998;7.794;2023-06-22T10:14:22;98651.63;;;28.87;100.00
53908;BME280;40469;47.998;7.794;2023-06-22T10:16:48;98645.44;;;28.96;100.00
53908;BME280;40469;47.998;7.794;2023-06-22T10:19:13;98647.25;;;28.96;100.00
53908;BME280;40469;47.998;7.794;2023-06-22T10:21:38;98637.50;;;29.04;100.00
53908;BME280;40469;47.998;7.794;2023-06-22T10:24:04;98634.81;;;29.04;100.00
53908;BME280;40469;47.998;7.794;2023-06-22T10:26:33;98633.84;;;29.15;100.00
53908;BME280;40469;47.998;7.794;2023-06-22T10:28:59;98639.66;;;29.30;100.00
53908;BME280;40469;47.998;7.794;2023-06-22T10:31:25;98656.16;;;29.06;100.00
53908;BME280;40469;47.998;7.794;2023-06-22T10:33:50;98674.38;;;28.83;100.00
53908;BME280;40469;47.998;7.794;2023-06-22T10:36:15;98688.16;;;28.59;100.00
53908;BME280;40469;47.998;7.794;2023-06-22T10:38:41;98691.47;;;28.41;100.00
53908;BME280;40469;47.998;7.794;2023-06-22T10:41:06;98685.94;;;28.33;100.00
53908;BME280;40469;47.998;7.794;2023-06-22T10:43:32;98708.69;;;28.08;100.00
53908;BME280;40469;47.998;7.794;2023-06-22T10:45:57;98726.34;;;27.89;100.00
53908;BME280;40469;47.998;7.794;2023-06-22T10:48:23;98731.41;;;28.04;100.00
53908;BME280;40469;47.998;7.794;2023-06-22T10:50:48;98730.44;;;28.05;100.00
53908;BME280;40469;47.998;7.794;2023-06-22T10:53:13;98738.88;;;28.21;100.00
53908;BME280;40469;47.998;7.794;2023-06-22T10:55:39;98738.59;;;28.24;100.00
53908;BME280;40469;47.998;7.794;2023-06-22T10:58:04;98743.88;;;28.57;100.00
53908;BME280;40469;47.998;7.794;2023-06-22T11:00:29;98715.47;;;28.64;100.00
53908;BME280;40469;47.998;7.794;2023-06-22T11:02:55;98712.53;;;28.77;100.00
53908;BME280;40469;47.998;7.794;2023-06-22T11:05:20;98723.94;;;29.09;100.00
53908;BME280;40469;47.998;7.794;2023-06-22T11:07:45;98713.53;;;29.16;100.00
53908;BME280;40469;47.998;7.794;2023-06-22T11:10:12;98713.19;;;29.09;100.00
53908;BME280;40469;47.998;7.794;2023-06-22T11:12:38;98710.78;;;29.06;100.00
53908;BME280;40469;47.998;7.794;2023-06-22T11:15:04;98706.69;;;29.02;100.00
53908;BME280;40469;47.998;7.794;2023-06-22T11:17:29;98721.00;;;29.12;100.00
53908;BME280;40469;47.998;7.794;2023-06-22T11:19:54;98743.78;;;29.08;100.00
53908;BME280;40469;47.998;7.794;2023-06-22T11:22:20;98760.47;;;29.12;100.00
53908;BME280;40469;47.998;7.794;2023-06-22T11:24:45;98768.53;;;29.12;100.00
53908;BME280;40469;47.998;7.794;2023-06-22T11:27:11;98773.19;;;29.10;100.00
53908;BME280;40469;47.998;7.794;2023-06-22T11:29:36;98757.88;;;29.01;100.00
53908;BME280;40469;47.998;7.794;2023-06-22T11:32:01;98757.31;;;28.97;100.00
53908;BME280;40469;47.998;7.794;2023-06-22T11:34:27;98754.59;;;28.87;100.00
53908;BME280;40469;47.998;7.794;2023-06-22T11:36:53;98763.91;;;28.83;100.00
53908;BME280;40469;47.998;7.794;2023-06-22T11:39:18;98763.59;;;28.77;100.00
53908;BME280;40469;47.998;7.794;2023-06-22T11:41:43;98764.84;;;28.63;100.00
53908;BME280;40469;47.998;7.794;2023-06-22T11:44:09;98746.56;;;28.57;100.00
53908;BME280;40469;47.998;7.794;2023-06-22T11:46:34;98735.94;;;28.55;100.00
53908;BME280;40469;47.998;7.794;2023-06-22T11:49:00;98718.31;;;28.41;100.00
53908;BME280;40469;47.998;7.794;2023-06-22T11:51:25;98720.66;;;28.25;100.00
53908;BME280;40469;47.998;7.794;2023-06-22T11:53:51;98718.69;;;28.27;100.00
53908;BME280;40469;47.998;7.794;2023-06-22T11:56:16;98706.91;;;28.18;100.00
53908;BME280;40469;47.998;7.794;2023-06-22T11:58:41;98706.75;;;28.10;100.00
53908;BME280;40469;47.998;7.794;2023-06-22T12:01:07;98707.97;;;28.06;100.00
53908;BME280;40469;47.998;7.794;2023-06-22T12:03:32;98711.72;;;27.93;100.00
53908;BME280;40469;47.998;7.794;2023-06-22T12:05:58;98706.41;;;28.03;100.00
53908;BME280;40469;47.998;7.794;2023-06-22T12:08:24;98715.97;;;28.17;100.00
53908;BME280;40469;47.998;7.794;2023-06-22T12:10:50;98726.41;;;28.20;100.00
53908;BME280;40469;47.998;7.794;2023-06-22T12:13:15;98732.97;;;28.27;100.00
53908;BME280;40469;47.998;7.794;2023-06-22T12:15:41;98733.94;;;28.26;100.00
53908;BME280;40469;47.998;7.794;2023-06-22T12:18:06;98749.59;;;28.21;100.00
53908;BME280;40469;47.998;7.794;2023-06-22T12:20:31;98774.91;;;28.18;100.00
53908;BME280;40469;47.998;7.794;2023-06-22T12:22:57;98781.69;;;28.02;100.00
53908;BME280;40469;47.998;7.794;2023-06-22T12:25:23;98784.53;;;27.89;100.00
53908;BME280;40469;47.998;7.794;2023-06-22T12:27:48;98783.06;;;27.85;100.00
53908;BME280;40469;47.998;7.794;2023-06-22T12:30:16;98787.31;;;27.66;100.00
53908;BME280;40469;47.998;7.794;2023-06-22T12:32:41;98793.22;;;27.49;100.00
53908;BME280;40469;47.998;7.794;2023-06-22T12:35:07;98796.44;;;27.31;100.00
53908;BME280;40469;47.998;7.794;2023-06-22T12:37:37;98793.16;;;27.16;100.00
53908;BME280;40469;47.998;7.794;2023-06-22T12:40:02;98790.59;;;27.15;100.00
53908;BME280;40469;47.998;7.794;2023-06-22T12:42:29;98786.59;;;27.09;100.00
53908;BME280;40469;47.998;7.794;2023-06-22T12:44:54;98787.44;;;27.10;100.00